Terminal Aerodrome Forecast
Issued by NWS

Home | Current Version | Previous Version | Text Only | Print | Product List | Glossary On
Versions: 1 2 3 4 5 6 7 8 9 10 11 12 13 14 15 16 17 18 19 20 21 22 23 24 25 26 27 28 29 30 31 32 33 34 35
000
FTUS44 KOUN 230313 AAA
TAFHBR
TAF AMD
KHBR 230313Z 2303/2324 17014KT P6SM SCT008 OVC080
     FM230700 18013KT 4SM BR OVC006
     FM231200 23014KT 5SM BR SCT015
     FM231700 34020G30KT P6SM SCT030
     FM232000 34025G34KT P6SM BKN030=

USA.gov is the U.S. government's official web portal to all federal, state and local government web resources and services.